Time;durP1;ratioP1;P1;durP2;ratioP2;P2;SDS_P1;SDS_P2;PMS_P1;PMS_P2;Temp;Humidity;BMP_temperature;BMP_pressure;BME280_temperature;BME280_humidity;BME280_pressure;Samples;Min_cycle;Max_cycle;Signal;HPM_P1;HPM_P2
2021/10/09 00:00:46;;;;;;;28.63;17.15;;;;;;;7.83;100.00;95746.28;5083732;28;20460;-63
2021/10/09 00:03:11;;;;;;;29.05;16.73;;;;;;;7.84;100.00;95747.09;5073731;28;20020;-63
2021/10/09 00:05:37;;;;;;;28.45;16.02;;;;;;;7.83;100.00;95740.94;5074934;28;20021;-63
2021/10/09 00:08:02;;;;;;;24.88;15.77;;;;;;;7.83;100.00;95740.94;5074828;28;20143;-63
2021/10/09 00:10:30;;;;;;;27.60;16.20;;;;;;;7.83;100.00;95750.81;5047769;28;20036;-63
2021/10/09 00:13:02;;;;;;;26.42;15.63;;;;;;;7.84;100.00;95753.22;5091315;28;20028;-63
2021/10/09 00:15:31;;;;;;;26.42;15.93;;;;;;;7.85;100.00;95749.53;5094000;28;20028;-63
2021/10/09 00:18:03;;;;;;;26.20;15.52;;;;;;;7.88;100.00;95750.09;5095027;28;20043;-63
2021/10/09 00:20:29;;;;;;;27.40;16.27;;;;;;;7.90;100.00;95756.00;5094844;28;20028;-63
2021/10/09 00:23:00;;;;;;;22.33;15.15;;;;;;;7.90;100.00;95748.00;5093942;28;20035;-63
2021/10/09 00:25:29;;;;;;;27.63;15.85;;;;;;;7.92;100.00;95753.91;5077019;28;20028;-63
2021/10/09 00:27:54;;;;;;;26.27;16.38;;;;;;;7.91;100.00;95752.28;5094898;28;20028;-63
2021/10/09 00:30:20;;;;;;;24.83;15.00;;;;;;;7.93;100.00;95759.03;5093625;28;20481;-63
2021/10/09 00:32:51;;;;;;;26.13;16.50;;;;;;;7.92;100.00;95760.06;5094814;28;20073;-63
2021/10/09 00:35:17;;;;;;;26.98;16.67;;;;;;;7.92;100.00;95757.41;5094560;28;20063;-63
2021/10/09 00:37:44;;;;;;;26.38;15.98;;;;;;;7.95;100.00;95753.47;5094647;28;20051;-63
2021/10/09 00:40:10;;;;;;;25.52;15.65;;;;;;;7.97;100.00;95759.38;5094530;28;20028;-63
2021/10/09 00:42:35;;;;;;;25.48;16.30;;;;;;;7.96;100.00;95753.25;5093343;28;20110;-63
2021/10/09 00:45:07;;;;;;;25.25;15.77;;;;;;;7.96;100.00;95749.75;5076183;28;20016;-63
2021/10/09 00:47:32;;;;;;;26.45;16.05;;;;;;;7.96;100.00;95760.44;5092998;28;20012;-63
2021/10/09 00:49:58;;;;;;;23.50;15.43;;;;;;;7.95;100.00;95750.81;5094224;28;20027;-63
2021/10/09 00:52:27;;;;;;;27.98;16.17;;;;;;;7.95;100.00;95756.94;5076351;28;20030;-63
2021/10/09 00:54:54;;;;;;;27.95;16.23;;;;;;;7.97;100.00;95756.72;5093219;28;20431;-63
2021/10/09 00:57:22;;;;;;;28.95;17.08;;;;;;;7.95;100.00;95748.94;5094232;28;20370;-63
2021/10/09 01:00:00;;;;;;;26.13;15.73;;;;;;;7.97;100.00;95754.06;5088807;28;20056;-63
2021/10/09 01:02:26;;;;;;;24.95;16.23;;;;;;;7.98;100.00;95755.66;5056257;28;20029;-63
2021/10/09 01:04:56;;;;;;;26.40;15.32;;;;;;;7.99;100.00;95750.09;5072738;28;20028;-63
2021/10/09 01:07:27;;;;;;;29.58;16.55;;;;;;;7.95;100.00;95743.63;5074251;28;20032;-63
2021/10/09 01:09:55;;;;;;;27.70;15.95;;;;;;;7.92;100.00;95746.72;5073959;28;20021;-63
2021/10/09 01:12:21;;;;;;;26.40;16.15;;;;;;;7.92;100.00;95746.72;5065749;28;20029;-63
2021/10/09 01:14:46;;;;;;;25.95;16.30;;;;;;;7.93;100.00;95748.38;5073798;28;20035;-63
2021/10/09 01:17:13;;;;;;;26.15;16.20;;;;;;;7.94;100.00;95750.00;5072730;28;20390;-64
2021/10/09 01:19:47;;;;;;;26.60;16.73;;;;;;;7.94;100.00;95747.31;5072392;28;20028;-63
2021/10/09 01:22:13;;;;;;;27.63;16.10;;;;;;;7.93;100.00;95748.38;5055991;28;20367;-63
2021/10/09 01:24:41;;;;;;;28.80;16.90;;;;;;;7.94;100.00;95749.19;5073821;28;20036;-63
2021/10/09 01:27:07;;;;;;;26.38;15.70;;;;;;;7.94;100.00;95746.53;5072426;28;20099;-63
2021/10/09 01:29:35;;;;;;;25.88;15.35;;;;;;;7.92;100.00;95738.72;5073248;28;20123;-63
2021/10/09 01:32:00;;;;;;;28.25;17.52;;;;;;;7.93;100.00;95742.22;5072743;28;20479;-63
2021/10/09 01:34:29;;;;;;;26.48;16.27;;;;;;;7.92;100.00;95746.72;5072129;28;20028;-63
2021/10/09 01:36:54;;;;;;;25.75;16.60;;;;;;;7.91;100.00;95739.78;5072302;28;20020;-63
2021/10/09 01:39:26;;;;;;;27.75;17.08;;;;;;;7.90;100.00;95743.47;5073301;28;20592;-63
2021/10/09 01:41:51;;;;;;;27.98;16.45;;;;;;;7.89;100.00;95741.06;5073075;28;20027;-63
2021/10/09 01:44:32;;;;;;;26.77;17.25;;;;;;;7.87;100.00;95741.28;5073144;28;20487;-63
2021/10/09 01:46:57;;;;;;;28.25;16.60;;;;;;;7.87;100.00;95743.94;5072867;28;20024;-62
2021/10/09 01:49:22;;;;;;;25.17;15.90;;;;;;;7.85;100.00;95740.72;5072962;28;20016;-62
2021/10/09 01:51:51;;;;;;;28.73;16.92;;;;;;;7.86;100.00;95747.66;5072949;28;20024;-63
2021/10/09 01:54:16;;;;;;;29.42;17.45;;;;;;;7.86;100.00;95739.66;5055228;28;20103;-63
2021/10/09 01:56:42;;;;;;;28.83;16.50;;;;;;;7.87;100.00;95743.16;5073146;28;20112;-63
2021/10/09 01:59:07;;;;;;;28.75;16.27;;;;;;;7.85;100.00;95746.84;5082736;28;20056;-63
2021/10/09 02:01:32;;;;;;;28.90;16.55;;;;;;;7.86;100.00;95747.66;5075363;28;20550;-63
2021/10/09 02:04:00;;;;;;;27.98;15.82;;;;;;;7.85;100.00;95741.53;5071549;28;20029;-63
2021/10/09 02:06:31;;;;;;;24.90;16.48;;;;;;;7.85;100.00;95740.72;5071903;28;20446;-63
2021/10/09 02:08:57;;;;;;;29.58;16.70;;;;;;;7.86;100.00;95739.66;5072637;28;20090;-63
2021/10/09 02:11:26;;;;;;;27.73;16.17;;;;;;;7.87;100.00;95746.63;5091552;28;20019;-63
2021/10/09 02:27:27;;;;;;;26.55;15.98;;;;;;;7.77;100.00;95739.19;5094288;28;20414;-63
2021/10/09 02:29:55;;;;;;;25.75;15.82;;;;;;;7.75;100.00;95735.13;5074214;28;20028;-63
2021/10/09 02:32:21;;;;;;;28.23;17.02;;;;;;;7.73;100.00;95740.72;5092774;28;20056;-63
2021/10/09 02:34:52;;;;;;;29.55;16.85;;;;;;;7.73;100.00;95729.22;5091353;28;20055;-63
2021/10/09 02:37:18;;;;;;;28.80;15.77;;;;;;;7.69;100.00;95738.72;5092472;28;20056;-63
2021/10/09 02:39:55;;;;;;;28.52;16.65;;;;;;;7.71;100.00;95744.66;5092483;28;20047;-63
2021/10/09 02:42:20;;;;;;;27.77;15.80;;;;;;;7.70;100.00;95733.16;5092310;28;20020;-63
2021/10/09 02:44:46;;;;;;;27.38;16.33;;;;;;;7.70;100.00;95735.00;5092864;28;20028;-63
2021/10/09 02:47:11;;;;;;;27.50;16.35;;;;;;;7.70;100.00;95729.66;5091715;28;20044;-63
2021/10/09 02:49:40;;;;;;;27.88;15.25;;;;;;;7.70;100.00;95735.00;5092454;28;20065;-63
2021/10/09 02:52:05;;;;;;;24.85;15.68;;;;;;;7.66;100.00;95729.31;5091226;28;20104;-63
2021/10/09 02:54:30;;;;;;;25.17;16.17;;;;;;;7.67;100.00;95738.94;5092148;28;20465;-63
2021/10/09 02:56:59;;;;;;;25.40;15.93;;;;;;;7.66;100.00;95726.66;5092197;28;20085;-63
2021/10/09 02:59:24;;;;;;;27.08;15.65;;;;;;;7.67;100.00;95730.13;5090874;28;20406;-62
2021/10/09 03:01:49;;;;;;;23.23;15.10;;;;;;;7.67;100.00;95730.13;5072111;28;20024;-63
2021/10/09 03:04:15;;;;;;;25.67;16.25;;;;;;;7.66;100.00;95726.66;5072034;28;20028;-63
2021/10/09 03:06:40;;;;;;;24.42;15.20;;;;;;;7.65;100.00;95727.72;5072163;28;20024;-62
2021/10/09 03:09:05;;;;;;;25.90;15.65;;;;;;;7.66;100.00;95736.50;5072051;28;20195;-63
2021/10/09 03:11:30;;;;;;;24.67;15.77;;;;;;;7.66;100.00;95731.19;5071210;28;20024;-63
2021/10/09 03:13:56;;;;;;;28.38;16.25;;;;;;;7.67;100.00;95724.81;5072004;28;20028;-63
2021/10/09 03:16:24;;;;;;;26.27;15.35;;;;;;;7.68;100.00;95727.25;5072253;28;20033;-63
2021/10/09 03:18:50;;;;;;;25.92;16.15;;;;;;;7.70;100.00;95727.81;5071937;28;20024;-63
2021/10/09 03:21:18;;;;;;;25.52;15.48;;;;;;;7.68;100.00;95724.56;5071200;28;20028;-63
2021/10/09 03:23:47;;;;;;;23.42;15.40;;;;;;;7.67;100.00;95732.81;5073298;28;20029;-62
2021/10/09 03:26:18;;;;;;;27.20;16.30;;;;;;;7.67;100.00;95730.13;5081689;28;20024;-63
2021/10/09 03:28:44;;;;;;;24.33;14.70;;;;;;;7.65;100.00;95726.91;5094636;28;20470;-63
2021/10/09 03:31:12;;;;;;;28.58;16.02;;;;;;;7.65;100.00;95738.38;5094733;28;20035;-63
2021/10/09 03:33:37;;;;;;;27.95;16.15;;;;;;;7.64;100.00;95733.28;5094752;28;20027;-63
2021/10/09 03:36:05;;;;;;;25.50;15.68;;;;;;;7.63;100.00;95734.31;5095959;28;20103;-63
2021/10/09 03:38:31;;;;;;;26.83;15.32;;;;;;;7.64;100.00;95738.59;5095577;28;20065;-63
2021/10/09 03:41:05;;;;;;;25.90;16.10;;;;;;;7.63;100.00;95735.13;5094735;28;20066;-63
2021/10/09 03:43:33;;;;;;;24.30;15.25;;;;;;;7.63;100.00;95737.78;5095643;28;20119;-63
2021/10/09 03:46:04;;;;;;;26.27;15.50;;;;;;;7.64;100.00;95743.94;5094590;28;20375;-63
2021/10/09 03:48:39;;;;;;;28.25;15.65;;;;;;;7.62;100.00;95738.03;5078267;28;20012;-63
2021/10/09 03:53:36;;;;;;;25.40;15.13;;;;;;;7.61;100.00;95750.56;5095008;28;20483;-62
2021/10/09 03:56:04;;;;;;;26.50;15.07;;;;;;;7.59;100.00;95741.94;5094778;28;20077;-60
2021/10/09 03:58:30;;;;;;;27.85;15.88;;;;;;;7.62;100.00;95746.84;5094392;28;20028;-63
2021/10/09 04:00:55;;;;;;;25.90;16.35;;;;;;;7.60;100.00;95742.75;5083708;28;20029;-63
2021/10/09 04:03:20;;;;;;;30.00;16.33;;;;;;;7.62;100.00;95746.03;5074651;28;20368;-63
2021/10/09 04:05:46;;;;;;;24.83;15.80;;;;;;;7.63;100.00;95748.47;5074131;28;20496;-63
2021/10/09 04:08:11;;;;;;;23.98;15.82;;;;;;;7.61;100.00;95737.22;5074837;28;20042;-63
2021/10/09 04:10:38;;;;;;;25.48;15.70;;;;;;;7.63;100.00;95744.97;5057295;28;20032;-63
2021/10/09 04:13:04;;;;;;;29.33;16.75;;;;;;;7.59;100.00;95744.59;5073870;28;20111;-63
2021/10/09 04:15:30;;;;;;;25.90;15.68;;;;;;;7.60;100.00;95748.94;5073743;28;20451;-63
2021/10/09 04:17:58;;;;;;;27.20;15.73;;;;;;;7.57;100.00;95742.19;5074642;28;20463;-62
2021/10/09 04:20:23;;;;;;;27.08;16.83;;;;;;;7.54;100.00;95750.66;5074064;28;20036;-63
2021/10/09 04:22:55;;;;;;;26.75;15.18;;;;;;;7.54;100.00;95747.97;5074729;28;20111;-63
2021/10/09 04:25:20;;;;;;;28.23;16.40;;;;;;;7.54;100.00;95755.16;5075000;28;20064;-62
2021/10/09 04:27:55;;;;;;;25.52;16.40;;;;;;;7.54;100.00;95749.84;5073625;28;20505;-63
2021/10/09 04:30:20;;;;;;;25.35;15.95;;;;;;;7.52;100.00;95751.91;5074744;28;20028;-63
2021/10/09 04:32:46;;;;;;;28.38;16.95;;;;;;;7.50;100.00;95757.47;5074565;28;20437;-63
2021/10/09 04:35:23;;;;;;;28.83;16.83;;;;;;;7.49;100.00;95757.72;5073796;28;20056;-63
2021/10/09 04:37:48;;;;;;;26.00;15.50;;;;;;;7.48;100.00;95756.06;5073480;28;20048;-63
2021/10/09 04:40:14;;;;;;;31.58;16.95;;;;;;;7.47;100.00;95754.44;5074465;28;20063;-63
2021/10/09 04:42:39;;;;;;;27.48;16.02;;;;;;;7.46;100.00;95756.28;5073658;28;20032;-63
2021/10/09 04:45:05;;;;;;;26.40;15.45;;;;;;;7.45;100.00;95752.00;5073215;28;20020;-62
2021/10/09 04:47:31;;;;;;;27.08;15.52;;;;;;;7.44;100.00;95758.38;5056655;28;20017;-63
2021/10/09 04:49:56;;;;;;;25.63;14.80;;;;;;;7.42;100.00;95765.81;5074190;28;20514;-62
2021/10/09 04:52:21;;;;;;;23.90;15.35;;;;;;;7.41;100.00;95760.72;5074542;28;20024;-62
2021/10/09 04:54:49;;;;;;;21.80;14.15;;;;;;;7.39;100.00;95758.28;5074416;28;20035;-62
2021/10/09 04:57:18;;;;;;;26.45;16.15;;;;;;;7.41;100.00;95766.03;5072622;28;20104;-63
2021/10/09 04:59:46;;;;;;;26.10;15.05;;;;;;;7.40;100.00;95756.41;5085160;22;20045;-61
2021/10/09 05:02:24;;;;;;;21.35;14.13;;;;;;;7.38;100.00;95753.97;4995601;28;20114;-61
2021/10/09 05:04:55;;;;;;;24.02;15.02;;;;;;;7.38;100.00;95753.13;5013609;28;20036;-61
2021/10/09 05:07:38;;;;;;;26.13;14.35;;;;;;;7.37;100.00;95751.53;4996904;28;20152;-61
2021/10/09 05:10:04;;;;;;;22.50;13.75;;;;;;;7.38;100.00;95764.66;5021833;28;20120;-61
2021/10/09 05:12:30;;;;;;;22.38;14.05;;;;;;;7.37;100.00;95757.66;5033857;28;20133;-61
2021/10/09 05:14:55;;;;;;;21.10;13.30;;;;;;;7.36;100.00;95766.69;5033680;28;20057;-61
2021/10/09 05:17:20;;;;;;;22.80;13.73;;;;;;;7.34;100.00;95765.31;5033664;28;20490;-61
2021/10/09 05:19:48;;;;;;;25.58;13.13;;;;;;;7.34;100.00;95762.66;5033536;28;20029;-62
2021/10/09 05:22:13;;;;;;;22.27;13.23;;;;;;;7.34;100.00;95768.78;5016203;28;20029;-62
2021/10/09 05:24:39;;;;;;;21.98;13.95;;;;;;;7.33;100.00;95769.00;5033315;28;20112;-62
2021/10/09 05:27:04;;;;;;;20.80;13.68;;;;;;;7.32;100.00;95765.53;5015813;28;20017;-62
2021/10/09 05:29:31;;;;;;;25.80;13.18;;;;;;;7.30;100.00;95772.97;5033392;28;20398;-61
2021/10/09 05:32:03;;;;;;;24.33;13.75;;;;;;;7.32;100.00;95775.38;5001158;28;20030;-61
2021/10/09 05:34:30;;;;;;;26.00;14.40;;;;;;;7.29;100.00;95773.19;4980795;28;20025;-61
2021/10/09 05:36:57;;;;;;;20.40;13.43;;;;;;;7.29;100.00;95766.00;4975573;28;20502;-62
2021/10/09 05:39:22;;;;;;;22.13;13.48;;;;;;;7.29;100.00;95771.34;5021574;28;20037;-62
2021/10/09 05:41:48;;;;;;;21.13;13.82;;;;;;;7.27;100.00;95770.72;5023410;28;20029;-62
2021/10/09 05:44:13;;;;;;;23.75;14.55;;;;;;;7.24;100.00;95761.34;5014174;28;20450;-62
2021/10/09 05:46:39;;;;;;;21.25;13.27;;;;;;;7.26;100.00;95771.75;4998897;28;20033;-62
2021/10/09 05:49:04;;;;;;;21.30;12.93;;;;;;;7.23;100.00;95767.72;5021651;28;20105;-62
2021/10/09 05:51:36;;;;;;;20.67;13.75;;;;;;;7.22;100.00;95768.75;5032859;28;20396;-62
2021/10/09 05:54:08;;;;;;;22.35;14.13;;;;;;;7.22;100.00;95770.59;5023000;28;20025;-61
2021/10/09 06:31:13;;;;;;;22.67;13.85;;;;;;;7.14;100.00;95809.03;5006619;28;20515;-61
2021/10/09 07:01:08;;;;;;;19.70;12.18;;;;;;;7.18;100.00;95828.88;5036022;28;20055;-62
2021/10/09 07:03:33;;;;;;;20.95;12.85;;;;;;;7.18;100.00;95838.72;5036212;28;20551;-61
2021/10/09 07:05:58;;;;;;;21.13;13.57;;;;;;;7.18;100.00;95828.06;5002143;28;20108;-62
2021/10/09 07:08:34;;;;;;;19.10;12.10;;;;;;;7.21;100.00;95836.41;5018451;28;20026;-61
2021/10/09 07:11:01;;;;;;;23.23;12.50;;;;;;;7.21;100.00;95831.06;5017978;28;20029;-61
2021/10/09 07:13:30;;;;;;;18.67;12.02;;;;;;;7.22;100.00;95835.38;5036193;28;20108;-61
2021/10/09 07:16:01;;;;;;;22.25;11.90;;;;;;;7.25;100.00;95837.56;5017776;28;20095;-61
2021/10/09 07:18:32;;;;;;;21.75;13.18;;;;;;;7.24;100.00;95835.13;5017889;28;20037;-62
2021/10/09 07:21:01;;;;;;;20.00;12.25;;;;;;;7.26;100.00;95830.38;5017908;28;20037;-62
2021/10/09 07:23:27;;;;;;;18.15;11.95;;;;;;;7.27;100.00;95832.00;5017845;28;20512;-61
2021/10/09 07:26:07;;;;;;;20.63;12.00;;;;;;;7.32;100.00;95837.50;5035567;28;20120;-61
2021/10/09 07:28:33;;;;;;;22.80;11.95;;;;;;;7.33;100.00;95840.97;5035589;28;20412;-61
2021/10/09 07:30:59;;;;;;;18.17;12.35;;;;;;;7.34;100.00;95840.75;5035522;28;20069;-61
2021/10/09 07:33:27;;;;;;;27.55;12.55;;;;;;;7.34;100.00;95848.72;5035478;28;20072;-61
2021/10/09 07:35:55;;;;;;;20.15;12.07;;;;;;;7.38;100.00;95847.25;5035290;28;20423;-61
2021/10/09 07:38:21;;;;;;;16.25;11.35;;;;;;;7.42;100.00;95845.75;5017551;28;20025;-61
2021/10/09 07:40:46;;;;;;;16.55;11.57;;;;;;;7.45;100.00;95839.16;5001106;28;20365;-61
2021/10/09 07:43:12;;;;;;;18.50;11.88;;;;;;;7.50;100.00;95831.31;5017607;28;20033;-61
2021/10/09 07:45:37;;;;;;;18.27;11.82;;;;;;;7.55;100.00;95836.75;5017702;28;20116;-61
2021/10/09 07:48:05;;;;;;;19.70;11.85;;;;;;;7.59;100.00;95835.25;5035295;28;20104;-61
2021/10/09 07:50:31;;;;;;;20.10;11.65;;;;;;;7.63;100.00;95839.09;5034759;28;20021;-61
2021/10/09 07:52:56;;;;;;;18.25;11.50;;;;;;;7.62;100.00;95831.34;5035109;28;20503;-62
2021/10/09 07:55:32;;;;;;;18.42;11.75;;;;;;;7.62;100.00;95831.34;5017375;28;20030;-62
2021/10/09 07:57:57;;;;;;;20.42;11.57;;;;;;;7.63;100.00;95831.09;5017718;28;20476;-62
2021/10/09 08:00:29;;;;;;;16.55;10.73;;;;;;;7.64;100.00;95829.25;5026952;28;20512;-62
2021/10/09 08:02:54;;;;;;;18.73;11.52;;;;;;;7.66;100.00;95827.16;4997643;28;20037;-61
2021/10/09 08:05:24;;;;;;;20.42;11.75;;;;;;;7.66;100.00;95824.50;4997416;28;20034;-62
2021/10/09 08:07:55;;;;;;;16.38;10.98;;;;;;;7.65;100.00;95821.03;5014931;28;20105;-62
2021/10/09 08:10:23;;;;;;;15.57;9.48;;;;;;;7.59;100.00;95816.59;4997074;28;20040;-61
2021/10/09 08:12:49;;;;;;;15.70;10.70;;;;;;;7.64;100.00;95818.59;5015222;28;20029;-61
2021/10/09 08:15:23;;;;;;;18.17;11.18;;;;;;;7.62;100.00;95815.34;5014989;28;20463;-61
2021/10/09 08:17:48;;;;;;;17.13;10.07;;;;;;;7.68;100.00;95819.75;5014641;28;20058;-62
2021/10/09 08:20:20;;;;;;;16.70;10.95;;;;;;;7.68;100.00;95815.22;4997268;28;20551;-62
2021/10/09 08:22:58;;;;;;;15.90;10.75;;;;;;;7.74;100.00;95811.66;4997166;28;20114;-61
2021/10/09 08:35:24;;;;;;;16.40;10.98;;;;;;;7.81;100.00;95808.88;5014876;28;20022;-62
2021/10/09 08:36:39;;;;;;;17.40;11.10;;;;;;;8.03;100.00;95790.47;4999368;28;20120;-62
2021/10/09 08:39:06;;;;;;;14.45;10.15;;;;;;;8.07;100.00;95781.78;4997861;28;20033;-62
2021/10/09 08:41:31;;;;;;;15.52;10.15;;;;;;;8.13;100.00;95775.50;5014438;28;20028;-62
2021/10/09 08:43:57;;;;;;;16.30;10.35;;;;;;;8.24;100.00;95770.38;4964652;28;20029;-62
2021/10/09 08:46:22;;;;;;;17.33;10.48;;;;;;;8.29;100.00;95765.19;4996945;28;20018;-62
2021/10/09 08:48:52;;;;;;;20.10;11.23;;;;;;;8.27;100.00;95756.59;4996685;28;20029;-62
2021/10/09 08:51:22;;;;;;;20.23;10.70;;;;;;;8.32;100.00;95746.03;5014238;28;20033;-62
2021/10/09 08:53:47;;;;;;;21.92;11.18;;;;;;;8.43;100.00;95738.03;4996759;28;20052;-61
2021/10/09 08:56:41;;;;;;;15.80;10.75;;;;;;;8.58;100.00;95734.06;4980433;28;20416;-62
2021/10/09 08:59:20;;;;;;;18.30;10.48;;;;;;;8.64;100.00;95725.91;5016504;28;20037;-60
2021/10/09 09:02:20;;;;;;;20.00;10.50;;;;;;;8.77;100.00;95711.47;5014672;28;20045;-61
2021/10/09 09:07:48;;;;;;;17.48;11.15;;;;;;;8.97;100.00;95684.31;4999117;28;20040;-61
2021/10/09 09:27:27;;;;;;;15.30;9.73;;;;;;;9.44;100.00;95601.16;5018596;28;20099;-62
2021/10/09 09:35:44;;;;;;;18.92;9.80;;;;;;;10.41;100.00;95539.00;5015755;28;20021;-62
2021/10/09 09:41:15;;;;;;;14.32;9.13;;;;;;;11.31;100.00;95515.91;5032969;28;20052;-62
2021/10/09 09:43:43;;;;;;;14.02;8.75;;;;;;;11.43;100.00;95521.88;5015487;28;20392;-62
2021/10/09 09:46:19;;;;;;;15.02;9.45;;;;;;;11.24;100.00;95526.84;5033188;28;20033;-62
2021/10/09 09:48:45;;;;;;;13.77;9.07;;;;;;;11.12;100.00;95528.09;5015620;28;20036;-61
2021/10/09 09:51:12;;;;;;;13.45;8.68;;;;;;;10.89;100.00;95542.66;5033137;28;20025;-62
2021/10/09 09:53:39;;;;;;;13.05;8.90;;;;;;;10.85;100.00;95544.22;4998573;28;20029;-62
2021/10/09 09:56:08;;;;;;;12.45;8.10;;;;;;;10.97;100.00;95545.69;5032716;28;20427;-62
2021/10/09 09:58:54;;;;;;;13.68;9.00;;;;;;;10.89;100.00;95551.53;5014924;28;20032;-62
2021/10/09 10:01:19;;;;;;;12.15;8.50;;;;;;;10.72;100.00;95551.63;5016146;28;20050;-62
2021/10/09 10:03:48;;;;;;;14.30;8.85;;;;;;;10.61;100.00;95549.91;4978866;28;20030;-62
2021/10/09 10:06:14;;;;;;;13.55;9.18;;;;;;;10.61;100.00;95559.81;4979343;28;20034;-62
2021/10/09 10:08:43;;;;;;;12.73;8.38;;;;;;;10.77;100.00;95556.25;4995574;28;20029;-62
2021/10/09 10:11:10;;;;;;;12.13;7.95;;;;;;;10.87;100.00;95560.88;4979569;28;20114;-62
2021/10/09 10:13:37;;;;;;;13.68;8.88;;;;;;;10.93;100.00;95573.25;5013040;28;20072;-62
2021/10/09 10:16:09;;;;;;;14.13;8.63;;;;;;;10.94;100.00;95575.66;4995255;28;20034;-62
2021/10/09 10:18:43;;;;;;;13.73;8.73;;;;;;;11.06;100.00;95574.69;4995198;28;20030;-62
2021/10/09 10:21:44;;;;;;;15.00;8.43;;;;;;;11.16;100.00;95582.81;4995124;28;20112;-62
2021/10/09 10:24:45;;;;;;;12.40;8.32;;;;;;;11.20;100.00;95592.78;4994736;28;20025;-62
2021/10/09 10:27:36;;;;;;;10.85;7.85;;;;;;;10.98;100.00;95594.75;4979113;28;20037;-61
2021/10/09 10:30:17;;;;;;;11.75;8.23;;;;;;;11.08;100.00;95602.88;4995274;28;20477;-62
2021/10/09 10:32:54;;;;;;;15.13;7.82;;;;;;;11.49;100.00;95595.94;5012587;28;20492;-62
2021/10/09 10:35:29;;;;;;;13.80;8.30;;;;;;;11.76;100.00;95603.09;5012676;28;20478;-63
2021/10/09 10:38:10;;;;;;;11.43;7.82;;;;;;;12.31;100.00;95626.78;4995124;28;20030;-62
2021/10/09 10:40:49;;;;;;;11.60;8.13;;;;;;;13.06;100.00;95654.97;4995744;28;20022;-62
2021/10/09 10:43:59;;;;;;;11.27;8.25;;;;;;;12.75;100.00;95693.59;5012590;28;20523;-62
2021/10/09 10:46:30;;;;;;;13.98;8.40;;;;;;;12.10;100.00;95711.00;4994995;28;20056;-63
2021/10/09 10:49:24;;;;;;;13.75;8.43;;;;;;;11.66;100.00;95692.41;5012555;28;20030;-63
2021/10/09 10:51:55;;;;;;;12.70;8.48;;;;;;;11.52;100.00;95673.25;5012454;28;20061;-62
2021/10/09 10:56:59;;;;;;;12.95;7.78;;;;;;;12.56;100.00;95679.81;5026343;28;20046;-62
2021/10/09 10:59:59;;;;;;;12.07;7.65;;;;;;;12.96;100.00;95713.31;4994709;28;20038;-63
2021/10/09 11:02:39;;;;;;;12.13;8.45;;;;;;;13.33;100.00;95732.78;5015837;22;20053;-64
2021/10/09 11:05:25;;;;;;;13.98;7.95;;;;;;;13.90;100.00;95774.88;5027712;28;20625;-65
2021/10/09 11:07:52;;;;;;;10.32;7.63;;;;;;;14.03;100.00;95780.78;4997104;28;20400;-65
2021/10/09 11:10:19;;;;;;;10.68;7.25;;;;;;;13.89;100.00;95813.66;5031448;28;20434;-65
2021/10/09 11:12:51;;;;;;;11.13;7.80;;;;;;;14.25;100.00;95835.22;5031282;28;20029;-65
2021/10/09 11:15:20;;;;;;;10.10;7.70;;;;;;;13.84;100.00;95872.06;5033603;28;20048;-65
2021/10/09 11:17:57;;;;;;;10.95;7.35;;;;;;;13.84;100.00;95848.63;5033315;28;20095;-65
2021/10/09 11:20:25;;;;;;;14.18;7.60;;;;;;;14.21;100.00;95851.09;5024831;28;20026;-65
2021/10/09 11:22:52;;;;;;;10.32;7.07;;;;;;;13.96;100.00;95872.63;5013088;28;20025;-65
2021/10/09 11:25:26;;;;;;;10.18;7.38;;;;;;;13.84;100.00;95872.88;4997235;28;20040;-65
2021/10/09 11:27:53;;;;;;;10.30;7.60;;;;;;;13.38;100.00;95866.53;5013577;28;20057;-65
2021/10/09 11:30:19;;;;;;;10.93;8.00;;;;;;;13.50;100.00;95831.31;4997237;28;20033;-65
2021/10/09 11:32:45;;;;;;;11.25;7.30;;;;;;;13.60;100.00;95831.34;5022626;28;20031;-65
2021/10/09 11:35:11;;;;;;;11.52;7.88;;;;;;;14.21;100.00;95824.16;5014934;28;20028;-65
2021/10/09 11:37:48;;;;;;;11.38;7.57;;;;;;;14.28;100.00;95858.94;5028677;28;20041;-64
2021/10/09 11:40:14;;;;;;;12.60;8.05;;;;;;;13.98;100.00;95883.13;5013599;28;20681;-65
2021/10/09 11:42:54;;;;;;;10.93;7.22;;;;;;;13.92;100.00;95866.16;4996636;28;20029;-65
2021/10/09 11:45:41;;;;;;;9.43;7.53;;;;;;;13.25;100.00;95875.91;5016105;28;20476;-64
2021/10/09 11:53:50;;;;;;;10.20;7.13;;;;;;;12.69;100.00;95813.72;5038942;28;20200;-66
2021/10/09 11:56:15;;;;;;;13.07;7.63;;;;;;;12.92;100.00;95803.63;5036877;28;20036;-65
2021/10/09 11:58:47;;;;;;;10.38;7.25;;;;;;;12.85;100.00;95800.38;5036443;28;20021;-65
2021/10/09 12:01:29;;;;;;;10.65;7.43;;;;;;;12.55;100.00;95792.94;5054411;28;20021;-66
2021/10/09 12:03:55;;;;;;;10.52;7.53;;;;;;;12.57;100.00;95785.41;5035713;28;20397;-65
2021/10/09 12:06:23;;;;;;;10.30;7.60;;;;;;;12.78;100.00;95774.53;5053072;28;20031;-66
2021/10/09 12:08:53;;;;;;;12.43;7.07;;;;;;;13.25;100.00;95783.63;5035538;28;20053;-65
2021/10/09 12:11:31;;;;;;;11.18;7.28;;;;;;;13.57;100.00;95791.53;5045486;28;20053;-65
2021/10/09 12:14:00;;;;;;;12.07;7.97;;;;;;;14.16;100.00;95808.00;5034128;28;20479;-65
2021/10/09 12:16:30;;;;;;;12.43;8.02;;;;;;;14.13;100.00;95858.94;5016568;28;20025;-65
2021/10/09 12:18:58;;;;;;;12.98;7.97;;;;;;;14.50;100.00;95856.78;5034113;28;20031;-65
2021/10/09 12:21:28;;;;;;;10.55;7.97;;;;;;;14.48;100.00;95867.03;5016047;28;20495;-64
2021/10/09 12:23:55;;;;;;;13.57;8.35;;;;;;;14.60;100.00;95874.03;4999517;28;20104;-65
2021/10/09 12:26:21;;;;;;;10.88;7.32;;;;;;;14.91;100.00;95875.63;5016354;28;20025;-65
2021/10/09 12:29:07;;;;;;;13.57;8.13;;;;;;;15.16;100.00;95874.75;5016124;28;20075;-65
2021/10/09 12:31:36;;;;;;;12.65;7.65;;;;;;;15.43;100.00;95890.63;5017790;28;20377;-65
2021/10/09 12:34:01;;;;;;;11.38;7.82;;;;;;;15.34;100.00;95884.16;4999800;28;20061;-65
2021/10/09 12:36:40;;;;;;;11.85;7.80;;;;;;;15.47;100.00;95912.47;4999893;28;20056;-64
2021/10/09 12:39:25;;;;;;;12.95;8.13;;;;;;;15.34;100.00;95916.56;5037958;28;20589;-65
2021/10/09 12:41:53;;;;;;;9.50;7.03;;;;;;;15.50;100.00;95904.59;5016514;28;20021;-65
2021/10/09 12:44:19;;;;;;;11.02;8.07;;;;;;;15.80;100.00;95895.59;4999316;28;20075;-65
2021/10/09 12:46:45;;;;;;;11.07;7.88;;;;;;;15.96;100.00;95896.34;5033480;28;20021;-65
2021/10/09 12:49:10;;;;;;;10.40;7.32;;;;;;;15.87;100.00;95909.63;4999519;28;20028;-62
2021/10/09 12:51:36;;;;;;;11.20;7.22;;;;;;;15.89;100.00;95896.66;4999471;28;20029;-59
2021/10/09 12:54:07;;;;;;;10.63;7.35;;;;;;;15.78;100.00;95908.59;4999172;28;20033;-65
2021/10/09 12:56:34;;;;;;;11.25;7.85;;;;;;;15.47;100.00;95904.34;5033468;28;20021;-63
2021/10/09 12:58:59;;;;;;;14.18;7.88;;;;;;;15.13;100.00;95904.19;5015722;28;20104;-62
2021/10/09 13:01:25;;;;;;;11.35;6.93;;;;;;;14.81;100.00;95883.75;5033330;28;20436;-62
2021/10/09 13:03:51;;;;;;;12.52;6.95;;;;;;;14.78;100.00;95868.09;5023693;28;20087;-64
2021/10/09 13:06:16;;;;;;;11.68;8.25;;;;;;;14.81;100.00;95886.44;5018834;28;20120;-63
2021/10/09 13:08:41;;;;;;;11.48;7.80;;;;;;;14.94;100.00;95891.25;5035183;28;20044;-63
2021/10/09 13:11:07;;;;;;;10.88;7.68;;;;;;;14.97;100.00;95895.31;5053131;28;20025;-64
2021/10/09 13:13:32;;;;;;;13.45;7.18;;;;;;;15.05;100.00;95882.06;5034576;28;20029;-65
2021/10/09 13:15:58;;;;;;;12.60;7.95;;;;;;;15.14;100.00;95889.63;5018692;28;20048;-63
2021/10/09 13:18:23;;;;;;;13.55;8.45;;;;;;;15.17;100.00;95881.78;5035138;28;20013;-62
2021/10/09 13:20:48;;;;;;;15.30;8.00;;;;;;;15.13;100.00;95896.09;5035061;28;20056;-63
2021/10/09 13:23:14;;;;;;;11.10;7.47;;;;;;;15.12;100.00;95889.91;5034471;28;20662;-58
2021/10/09 13:25:40;;;;;;;12.35;7.60;;;;;;;15.36;100.00;95885.50;5052719;28;20024;-64
2021/10/09 13:28:06;;;;;;;15.32;8.27;;;;;;;15.62;100.00;95883.53;5052315;28;20019;-64
2021/10/09 13:30:32;;;;;;;10.45;7.03;;;;;;;15.93;100.00;95878.78;5034959;28;20081;-67